createdAt,value
2023-05-20T00:00:02.274Z,28.78
2023-05-20T00:02:31.225Z,28.76
2023-05-20T00:04:59.714Z,28.00
2023-05-20T00:07:28.156Z,28.68
2023-05-20T00:09:56.507Z,28.67
2023-05-20T00:12:24.800Z,28.31
2023-05-20T00:14:55.927Z,28.58
2023-05-20T00:17:26.532Z,28.12
2023-05-20T00:19:54.933Z,28.31
2023-05-20T00:22:23.305Z,27.65
2023-05-20T00:24:51.623Z,27.79
2023-05-20T00:27:19.990Z,28.17
2023-05-20T00:29:48.274Z,27.96
2023-05-20T00:32:17.999Z,27.87
2023-05-20T00:34:46.349Z,27.75
2023-05-20T00:37:14.656Z,27.67
2023-05-20T00:39:42.925Z,27.85
2023-05-20T00:42:11.173Z,28.14
2023-05-20T00:44:39.486Z,28.46
2023-05-20T00:47:07.780Z,28.41
2023-05-20T00:49:37.510Z,28.18
2023-05-20T00:52:06.647Z,27.73
2023-05-20T00:54:35.001Z,28.01
2023-05-20T00:57:03.891Z,27.65
2023-05-20T00:59:32.256Z,27.21
2023-05-20T01:02:00.599Z,27.75
2023-05-20T01:04:29.062Z,27.82
2023-05-20T01:06:58.899Z,27.65
2023-05-20T01:09:27.301Z,27.85
2023-05-20T01:11:57.963Z,27.96
2023-05-20T01:14:28.475Z,27.95
2023-05-20T01:16:58.491Z,28.34
2023-05-20T01:19:29.975Z,28.12
2023-05-20T01:22:00.598Z,27.80
2023-05-20T01:24:30.042Z,27.43
2023-05-20T01:26:58.400Z,28.00
2023-05-20T01:29:26.878Z,27.69
2023-05-20T01:31:56.497Z,27.61
2023-05-20T01:34:25.393Z,27.53
2023-05-20T01:36:54.742Z,27.89
2023-05-20T01:39:23.949Z,27.93
2023-05-20T01:41:54.690Z,27.88
2023-05-20T01:44:23.197Z,27.75
2023-05-20T01:46:51.567Z,27.69
2023-05-20T01:49:19.921Z,27.66
2023-05-20T01:51:48.289Z,27.37
2023-05-20T01:54:16.614Z,27.40
2023-05-20T01:56:45.337Z,27.51
2023-05-20T01:59:15.074Z,27.17
2023-05-20T02:01:43.669Z,26.86
2023-05-20T02:04:12.002Z,27.15
2023-05-20T02:06:40.288Z,26.24
2023-05-20T02:09:08.876Z,26.89
2023-05-20T02:11:37.161Z,26.45
2023-05-20T02:14:05.545Z,27.17
2023-05-20T02:16:35.259Z,27.12
2023-05-20T02:19:03.726Z,27.16
2023-05-20T02:21:32.285Z,27.39
2023-05-20T02:24:00.521Z,26.92
2023-05-20T02:26:28.886Z,26.92
2023-05-20T02:28:57.342Z,27.07
2023-05-20T02:31:25.959Z,26.46
2023-05-20T02:33:55.856Z,25.50
2023-05-20T02:36:24.163Z,26.39
2023-05-20T02:38:54.704Z,25.42
2023-05-20T02:41:22.803Z,26.01
2023-05-20T02:43:51.024Z,26.38
2023-05-20T02:46:19.991Z,26.82
2023-05-20T02:48:48.271Z,26.31
2023-05-20T02:51:18.361Z,26.18
2023-05-20T02:53:47.461Z,26.65
2023-05-20T02:56:16.302Z,26.04
2023-05-20T02:58:44.660Z,25.96
2023-05-20T03:01:13.017Z,26.17
2023-05-20T03:03:41.707Z,26.42
2023-05-20T03:06:10.202Z,26.33
2023-05-20T03:08:40.249Z,26.66
2023-05-20T03:11:08.504Z,25.77
2023-05-20T03:13:36.821Z,26.84
2023-05-20T03:16:05.656Z,26.85
2023-05-20T03:18:34.341Z,26.74
2023-05-20T03:21:02.685Z,26.54
2023-05-20T03:23:30.960Z,26.18
2023-05-20T03:26:00.605Z,26.64
2023-05-20T03:28:28.917Z,27.07
2023-05-20T03:30:57.240Z,26.83
2023-05-20T03:33:26.403Z,27.35
2023-05-20T03:35:54.770Z,27.57
2023-05-20T03:38:23.241Z,27.13
2023-05-20T03:40:51.510Z,27.55
2023-05-20T03:43:21.259Z,27.49
2023-05-20T03:45:49.559Z,27.54
2023-05-20T03:48:17.869Z,27.92
2023-05-20T03:50:46.143Z,27.83
2023-05-20T03:53:14.454Z,28.24
2023-05-20T03:55:43.626Z,28.67
2023-05-20T03:58:13.482Z,28.28
2023-05-20T04:00:43.263Z,28.86
2023-05-20T04:03:11.672Z,29.14
2023-05-20T04:05:40.140Z,29.20
2023-05-20T04:08:10.040Z,29.24
2023-05-20T04:10:38.299Z,28.97
2023-05-20T04:13:06.656Z,29.12
2023-05-20T04:15:36.951Z,29.91
2023-05-20T04:18:08.194Z,30.68
2023-05-20T04:20:37.075Z,31.38
2023-05-20T04:23:05.436Z,31.46
2023-05-20T04:25:34.738Z,32.19
2023-05-20T04:28:03.029Z,32.50
2023-05-20T04:30:33.573Z,31.25
2023-05-20T04:33:03.617Z,32.29
2023-05-20T04:35:35.226Z,31.95
2023-05-20T04:38:03.767Z,30.40
2023-05-20T04:40:32.507Z,30.67
2023-05-20T04:43:01.324Z,29.61
2023-05-20T04:45:29.610Z,30.87
2023-05-20T04:47:58.125Z,31.97
2023-05-20T04:50:26.559Z,32.09
2023-05-20T04:52:56.182Z,32.25
2023-05-20T04:55:25.913Z,31.32
2023-05-20T04:57:54.197Z,30.74
2023-05-20T05:00:23.636Z,29.59
2023-05-20T05:02:52.004Z,29.34
2023-05-20T05:05:20.369Z,29.07
2023-05-20T05:07:49.142Z,28.67
2023-05-20T05:10:18.979Z,29.59
2023-05-20T05:12:48.472Z,29.14
2023-05-20T05:15:16.957Z,29.07
2023-05-20T05:17:45.271Z,28.70
2023-05-20T05:20:13.582Z,29.15
2023-05-20T05:22:41.910Z,29.36
2023-05-20T05:25:11.364Z,29.16
2023-05-20T05:27:41.240Z,29.83
2023-05-20T05:30:10.700Z,30.01
2023-05-20T05:32:39.144Z,30.45
2023-05-20T05:35:08.450Z,30.04
2023-05-20T05:37:37.006Z,30.88
2023-05-20T05:40:06.071Z,31.28
2023-05-20T05:42:34.400Z,28.75
2023-05-20T05:45:04.872Z,28.66
2023-05-20T05:47:33.229Z,30.71
2023-05-20T05:50:01.664Z,30.29
2023-05-20T05:52:29.997Z,30.46
2023-05-20T05:54:58.344Z,29.34
2023-05-20T05:57:26.699Z,29.96
2023-05-20T05:59:55.036Z,29.15
2023-05-20T06:02:24.904Z,28.91
2023-05-20T06:04:53.284Z,29.03
2023-05-20T06:07:21.627Z,28.36
2023-05-20T06:09:49.987Z,29.27
2023-05-20T06:12:18.306Z,29.00
2023-05-20T06:14:46.604Z,28.89
2023-05-20T06:17:14.960Z,28.50
2023-05-20T06:19:44.732Z,28.53
2023-05-20T06:22:13.022Z,29.01
2023-05-20T06:24:41.293Z,29.84
2023-05-20T06:27:09.641Z,29.23
2023-05-20T06:29:38.001Z,29.51
2023-05-20T06:32:07.080Z,29.92
2023-05-20T06:34:35.429Z,30.26
2023-05-20T06:37:05.348Z,29.13
2023-05-20T06:39:33.673Z,29.57
2023-05-20T06:42:01.958Z,28.53
2023-05-20T06:44:30.517Z,30.71
2023-05-20T06:46:58.862Z,31.15
2023-05-20T06:49:27.738Z,30.28
2023-05-20T06:51:56.072Z,29.71
2023-05-20T06:54:25.703Z,29.94
2023-05-20T06:56:54.005Z,30.55
2023-05-20T06:59:22.384Z,30.21
2023-05-20T07:01:50.657Z,30.29
2023-05-20T07:04:18.993Z,27.70
2023-05-20T07:06:47.246Z,28.68
2023-05-20T07:09:15.522Z,28.76
2023-05-20T07:11:45.277Z,31.06
2023-05-20T07:14:13.625Z,30.15
2023-05-20T07:16:41.925Z,29.74
2023-05-20T07:19:10.791Z,29.08
2023-05-20T07:21:39.144Z,29.09
2023-05-20T07:24:07.854Z,29.07
2023-05-20T07:26:36.650Z,29.77
2023-05-20T07:29:06.590Z,29.92
2023-05-20T07:31:34.952Z,30.67
2023-05-20T07:34:03.382Z,30.14
2023-05-20T07:36:31.805Z,28.84
2023-05-20T07:39:04.240Z,29.67
2023-05-20T07:41:33.430Z,30.54
2023-05-20T07:44:03.380Z,29.60
2023-05-20T07:46:33.199Z,29.34
2023-05-20T07:49:01.683Z,28.66
2023-05-20T07:51:29.964Z,30.54
2023-05-20T07:53:58.337Z,31.01
2023-05-20T07:56:26.703Z,30.02
2023-05-20T07:58:59.691Z,30.19
2023-05-20T08:01:28.473Z,29.48
2023-05-20T08:03:58.267Z,30.04
2023-05-20T08:06:29.361Z,30.10
2023-05-20T08:08:58.135Z,31.14
2023-05-20T08:11:26.485Z,29.89
2023-05-20T08:13:54.943Z,29.51
2023-05-20T08:16:23.458Z,30.84
2023-05-20T08:18:51.845Z,30.38
2023-05-20T08:21:21.741Z,32.09
2023-05-20T08:23:50.531Z,32.10
2023-05-20T08:26:18.804Z,32.90
2023-05-20T08:28:47.295Z,32.08
2023-05-20T08:31:15.825Z,31.11
2023-05-20T08:33:44.112Z,32.82
2023-05-20T08:36:12.406Z,30.96
2023-05-20T08:38:42.119Z,31.68
2023-05-20T08:41:10.464Z,32.14
2023-05-20T08:43:38.871Z,33.09
2023-05-20T08:46:07.542Z,31.34
2023-05-20T08:48:36.989Z,31.94
2023-05-20T08:51:05.686Z,31.30
2023-05-20T08:53:34.024Z,32.25
2023-05-20T08:56:04.157Z,32.31
2023-05-20T08:58:32.822Z,32.75
2023-05-20T09:01:01.302Z,32.77
2023-05-20T09:03:29.644Z,33.45
2023-05-20T09:06:05.348Z,33.38
2023-05-20T09:08:34.351Z,32.88
2023-05-20T09:11:04.270Z,32.96
2023-05-20T09:13:34.032Z,32.42
2023-05-20T09:16:03.510Z,32.02
2023-05-20T09:18:32.156Z,33.43
2023-05-20T09:21:06.833Z,32.97
2023-05-20T09:23:37.968Z,33.21
2023-05-20T09:26:07.668Z,32.95
2023-05-20T09:28:38.320Z,31.41
2023-05-20T09:31:07.191Z,31.93
2023-05-20T09:33:35.707Z,32.20
2023-05-20T09:36:05.481Z,35.63
2023-05-20T09:38:37.920Z,33.29
2023-05-20T09:41:09.325Z,33.09
2023-05-20T09:43:37.833Z,33.17
2023-05-20T09:46:06.606Z,34.98
2023-05-20T09:48:37.262Z,34.52
2023-05-20T09:51:06.878Z,33.99
2023-05-20T09:53:35.540Z,34.44
2023-05-20T09:56:04.194Z,33.83
2023-05-20T09:58:35.331Z,34.05
2023-05-20T10:01:03.733Z,35.14
2023-05-20T10:03:33.566Z,34.28
2023-05-20T10:06:13.679Z,34.75
2023-05-20T10:08:56.977Z,35.57
2023-05-20T10:11:29.365Z,34.30
2023-05-20T10:14:13.467Z,35.06
2023-05-20T10:16:47.737Z,34.76
2023-05-20T10:19:26.695Z,35.74
2023-05-20T10:21:59.088Z,35.67
2023-05-20T10:24:34.852Z,37.16
2023-05-20T10:27:05.621Z,37.63
2023-05-20T10:29:45.071Z,35.27
2023-05-20T10:32:13.503Z,34.84
2023-05-20T10:34:48.663Z,35.22
2023-05-20T10:37:25.897Z,35.66
2023-05-20T10:39:54.397Z,34.30
2023-05-20T10:42:29.836Z,34.39
2023-05-20T10:44:59.514Z,34.50
2023-05-20T10:47:27.827Z,34.48
2023-05-20T10:49:56.242Z,33.97
2023-05-20T10:52:25.219Z,36.05
2023-05-20T10:54:56.990Z,34.26
2023-05-20T10:57:26.968Z,35.54
2023-05-20T10:59:55.985Z,35.75
2023-05-20T11:02:27.191Z,34.94
2023-05-20T11:04:58.130Z,36.22
2023-05-20T11:07:28.109Z,35.59
2023-05-20T11:09:56.442Z,35.48
2023-05-20T11:12:25.558Z,35.00
2023-05-20T11:14:54.195Z,35.67
2023-05-20T11:17:22.777Z,35.90
2023-05-20T11:19:52.454Z,35.32
2023-05-20T11:22:20.708Z,35.42
2023-05-20T11:24:49.017Z,33.86
2023-05-20T11:27:17.293Z,33.46
2023-05-20T11:29:45.631Z,35.74
2023-05-20T11:32:14.154Z,36.89
2023-05-20T11:34:42.728Z,34.89
2023-05-20T11:37:12.689Z,36.55
2023-05-20T11:39:40.962Z,36.60
2023-05-20T11:42:09.313Z,36.09
2023-05-20T11:44:38.553Z,36.72
2023-05-20T11:47:07.702Z,35.46
2023-05-20T11:49:40.999Z,35.82
2023-05-20T11:52:12.571Z,36.07
2023-05-20T11:54:40.997Z,36.21
2023-05-20T11:57:09.371Z,36.03
2023-05-20T11:59:37.761Z,35.27
2023-05-20T12:02:06.520Z,35.62
2023-05-20T12:04:34.820Z,34.80
2023-05-20T12:07:04.115Z,35.26
2023-05-20T12:09:33.779Z,35.90
2023-05-20T12:12:02.765Z,35.33
2023-05-20T12:14:31.151Z,34.55
2023-05-20T12:16:59.882Z,35.66
2023-05-20T12:19:28.339Z,35.30
2023-05-20T12:21:56.749Z,36.64
2023-05-20T12:24:25.008Z,36.82
2023-05-20T12:26:54.659Z,36.23
2023-05-20T12:29:22.930Z,36.28
2023-05-20T12:31:51.261Z,36.31
2023-05-20T12:34:19.671Z,34.87
2023-05-20T12:36:48.458Z,35.09
2023-05-20T12:39:17.836Z,35.24
2023-05-20T12:41:46.499Z,35.64
2023-05-20T12:44:16.186Z,35.67
2023-05-20T12:46:44.503Z,35.52
2023-05-20T12:49:12.856Z,35.24
2023-05-20T12:51:41.136Z,35.81
2023-05-20T12:54:09.403Z,34.71
2023-05-20T12:56:37.726Z,34.41
2023-05-20T12:59:05.984Z,36.31
2023-05-20T13:01:36.040Z,36.83
2023-05-20T13:04:04.492Z,35.68
2023-05-20T13:06:32.944Z,35.83
2023-05-20T13:09:01.244Z,36.49
2023-05-20T13:11:29.557Z,35.38
2023-05-20T13:13:58.072Z,35.82
2023-05-20T13:16:26.824Z,35.61
2023-05-20T13:18:56.730Z,35.29
2023-05-20T13:21:25.078Z,36.52
2023-05-20T13:23:53.384Z,37.30
2023-05-20T13:26:21.929Z,36.10
2023-05-20T13:28:50.235Z,35.99
2023-05-20T13:31:18.672Z,36.99
2023-05-20T13:33:46.965Z,36.92
2023-05-20T13:36:16.665Z,36.39
2023-05-20T13:38:44.972Z,35.78
2023-05-20T13:41:13.281Z,36.59
2023-05-20T13:43:42.232Z,36.69
2023-05-20T13:46:10.738Z,37.04
2023-05-20T13:48:39.189Z,35.60
2023-05-20T13:51:07.529Z,36.11
2023-05-20T13:53:37.195Z,35.16
2023-05-20T13:56:05.779Z,35.08
2023-05-20T13:58:34.114Z,35.03
2023-05-20T14:01:02.428Z,36.00
2023-05-20T14:03:31.077Z,34.49
2023-05-20T14:05:59.542Z,35.16
2023-05-20T14:08:27.883Z,35.42
2023-05-20T14:10:57.535Z,36.42
2023-05-20T14:13:26.103Z,35.17
2023-05-20T14:15:55.670Z,36.14
2023-05-20T14:18:23.991Z,35.85
2023-05-20T14:20:52.375Z,35.55
2023-05-20T14:23:21.426Z,35.49
2023-05-20T14:25:49.731Z,35.41
2023-05-20T14:28:19.388Z,35.43
2023-05-20T14:30:47.663Z,36.20
2023-05-20T14:33:16.040Z,37.95
2023-05-20T14:35:44.494Z,37.28
2023-05-20T14:38:12.837Z,37.90
2023-05-20T14:40:41.123Z,36.63
2023-05-20T14:43:09.564Z,37.59
2023-05-20T14:45:39.290Z,36.51
2023-05-20T14:48:08.036Z,37.56
2023-05-20T14:50:36.607Z,36.31
2023-05-20T14:53:05.613Z,37.49
2023-05-20T14:55:33.883Z,36.65
2023-05-20T14:58:02.182Z,37.17
2023-05-20T15:00:30.597Z,37.39
2023-05-20T15:03:00.361Z,37.81
2023-05-20T15:05:28.775Z,37.80
2023-05-20T15:07:57.332Z,36.46
2023-05-20T15:10:25.787Z,37.12
2023-05-20T15:12:54.055Z,35.56
2023-05-20T15:15:22.489Z,35.18
2023-05-20T15:17:50.950Z,36.02
2023-05-20T15:20:20.602Z,35.37
2023-05-20T15:22:48.883Z,36.32
2023-05-20T15:25:17.444Z,35.45
2023-05-20T15:27:45.720Z,35.57
2023-05-20T15:30:15.145Z,35.75
2023-05-20T15:32:43.759Z,35.01
2023-05-20T15:35:12.181Z,34.06
2023-05-20T15:37:42.200Z,34.77
2023-05-20T15:40:11.628Z,34.37
2023-05-20T15:42:39.949Z,35.36
2023-05-20T15:45:09.174Z,36.29
2023-05-20T15:47:39.876Z,35.27
2023-05-20T15:50:11.163Z,35.67
2023-05-20T15:52:40.929Z,35.67
2023-05-20T15:55:10.868Z,36.11
2023-05-20T15:57:39.216Z,36.10
2023-05-20T16:00:10.498Z,35.09
2023-05-20T16:02:40.361Z,34.62
2023-05-20T16:05:09.235Z,34.03
2023-05-20T16:07:37.574Z,34.23
2023-05-20T16:10:08.555Z,35.34
2023-05-20T16:12:36.892Z,34.56
2023-05-20T16:15:05.828Z,34.77
2023-05-20T16:17:34.137Z,35.78
2023-05-20T16:20:02.511Z,35.22
2023-05-20T16:22:30.808Z,35.56
2023-05-20T16:24:59.074Z,35.45
2023-05-20T16:27:30.052Z,34.83
2023-05-20T16:29:58.374Z,35.47
2023-05-20T16:32:27.137Z,35.67
2023-05-20T16:34:55.681Z,34.85
2023-05-20T16:37:23.917Z,35.18
2023-05-20T16:39:52.150Z,34.63
2023-05-20T16:42:20.411Z,35.14
2023-05-20T16:44:51.528Z,34.51
2023-05-20T16:47:19.910Z,34.67
2023-05-20T16:49:48.161Z,34.62
2023-05-20T16:52:16.545Z,34.22
2023-05-20T16:54:44.998Z,35.34
2023-05-20T16:57:15.912Z,34.73
2023-05-20T16:59:44.185Z,34.03
2023-05-20T17:02:13.821Z,33.50
2023-05-20T17:04:42.199Z,35.29
2023-05-20T17:07:11.394Z,34.30
2023-05-20T17:09:39.668Z,33.62
2023-05-20T17:12:08.552Z,34.16
2023-05-20T17:14:37.034Z,34.40
2023-05-20T17:17:06.025Z,34.53
2023-05-20T17:19:35.879Z,33.04
2023-05-20T17:22:04.157Z,33.53
2023-05-20T17:24:33.083Z,33.14
2023-05-20T17:27:01.964Z,32.95
2023-05-20T17:29:30.296Z,33.21
2023-05-20T17:31:58.605Z,33.66
2023-05-20T17:34:26.861Z,33.82
2023-05-20T17:36:57.177Z,33.74
2023-05-20T17:39:25.285Z,33.29
2023-05-20T17:41:53.450Z,32.92
2023-05-20T17:44:21.695Z,33.40
2023-05-20T17:46:49.991Z,32.40
2023-05-20T17:49:18.420Z,32.22
2023-05-20T17:51:46.738Z,32.38
2023-05-20T17:54:16.384Z,32.43
2023-05-20T17:56:47.616Z,32.02
2023-05-20T17:59:15.951Z,32.70
2023-05-20T18:01:44.786Z,32.47
2023-05-20T18:04:13.271Z,32.96
2023-05-20T18:06:41.739Z,32.72
2023-05-20T18:09:10.328Z,32.70
2023-05-20T18:11:40.082Z,32.38
2023-05-20T18:14:08.357Z,32.97
2023-05-20T18:16:36.713Z,32.34
2023-05-20T18:19:05.262Z,32.26
2023-05-20T18:21:33.582Z,32.50
2023-05-20T18:24:01.906Z,33.20
2023-05-20T18:26:30.223Z,31.28
2023-05-20T18:28:59.913Z,32.27
2023-05-20T18:31:28.231Z,32.11
2023-05-20T18:33:56.518Z,31.59
2023-05-20T18:36:25.018Z,31.88
2023-05-20T18:38:53.293Z,31.99
2023-05-20T18:41:23.599Z,30.96
2023-05-20T18:43:55.340Z,32.25
2023-05-20T18:46:25.039Z,32.08
2023-05-20T18:48:53.342Z,31.32
2023-05-20T18:51:21.637Z,30.43
2023-05-20T18:53:49.931Z,32.27
2023-05-20T18:56:18.323Z,31.61
2023-05-20T18:58:46.847Z,31.10
2023-05-20T19:01:15.223Z,31.56
2023-05-20T19:03:45.079Z,31.35
2023-05-20T19:06:13.935Z,30.78
2023-05-20T19:08:42.205Z,30.87
2023-05-20T19:11:10.591Z,31.44
2023-05-20T19:13:38.876Z,31.34
2023-05-20T19:16:07.601Z,30.20
2023-05-20T19:18:35.929Z,30.96
2023-05-20T19:21:05.958Z,30.00
2023-05-20T19:23:34.307Z,31.24
2023-05-20T19:26:02.637Z,31.02
2023-05-20T19:28:30.935Z,30.44
2023-05-20T19:30:59.255Z,30.67
2023-05-20T19:33:27.569Z,31.64
2023-05-20T19:35:57.716Z,30.56
2023-05-20T19:38:27.392Z,30.01
2023-05-20T19:40:55.701Z,30.37
2023-05-20T19:43:24.281Z,30.56
2023-05-20T19:45:52.683Z,29.97
2023-05-20T19:48:22.444Z,30.59
2023-05-20T19:50:50.854Z,30.65
2023-05-20T19:53:20.885Z,30.12
2023-05-20T19:55:50.691Z,30.66
2023-05-20T19:58:18.982Z,31.33
2023-05-20T20:00:47.276Z,30.69
2023-05-20T20:03:15.678Z,30.48
2023-05-20T20:05:44.106Z,30.77
2023-05-20T20:08:12.473Z,30.78
2023-05-20T20:10:40.833Z,30.67
2023-05-20T20:13:10.541Z,30.08
2023-05-20T20:15:40.094Z,30.39
2023-05-20T20:18:08.423Z,30.49
2023-05-20T20:20:40.079Z,30.27
2023-05-20T20:23:08.926Z,30.62
2023-05-20T20:25:38.717Z,30.11
2023-05-20T20:28:07.215Z,29.82
2023-05-20T20:30:37.289Z,29.73
2023-05-20T20:33:07.139Z,29.86
2023-05-20T20:35:36.186Z,30.63
2023-05-20T20:38:08.851Z,30.35
2023-05-20T20:40:41.601Z,30.41
2023-05-20T20:43:10.904Z,30.16
2023-05-20T20:45:40.664Z,30.65
2023-05-20T20:48:09.075Z,30.18
2023-05-20T20:50:37.522Z,30.64
2023-05-20T20:53:05.879Z,30.60
2023-05-20T20:55:34.412Z,29.97
2023-05-20T20:58:04.794Z,30.92
2023-05-20T21:00:33.848Z,31.03
2023-05-20T21:03:03.685Z,30.40
2023-05-20T21:05:31.932Z,29.46
2023-05-20T21:08:03.194Z,29.89
2023-05-20T21:10:31.617Z,30.12
2023-05-20T21:13:00.302Z,29.72
2023-05-20T21:15:28.608Z,30.93
2023-05-20T21:17:57.002Z,30.35
2023-05-20T21:20:26.821Z,30.18
2023-05-20T21:22:55.096Z,30.83
2023-05-20T21:25:23.364Z,30.60
2023-05-20T21:27:51.793Z,30.05
2023-05-20T21:30:20.168Z,30.34
2023-05-20T21:32:48.545Z,29.64
2023-05-20T21:35:17.044Z,30.75
2023-05-20T21:37:46.702Z,29.82
2023-05-20T21:40:15.058Z,30.69
2023-05-20T21:42:43.351Z,29.84
2023-05-20T21:45:12.179Z,29.80
2023-05-20T21:47:40.572Z,30.42
2023-05-20T21:50:09.723Z,30.20
2023-05-20T21:52:39.804Z,30.10
2023-05-20T21:55:10.950Z,30.03
2023-05-20T21:57:39.234Z,29.97
2023-05-20T22:00:14.226Z,29.96
2023-05-20T22:02:42.786Z,29.69
2023-05-20T22:05:11.869Z,29.08
2023-05-20T22:07:42.016Z,30.20
2023-05-20T22:10:12.707Z,30.72
2023-05-20T22:12:42.405Z,29.21
2023-05-20T22:15:11.707Z,29.54
2023-05-20T22:17:40.185Z,29.86
2023-05-20T22:20:10.666Z,30.29
2023-05-20T22:22:39.856Z,30.12
2023-05-20T22:25:08.740Z,29.81
2023-05-20T22:27:38.809Z,30.65
2023-05-20T22:30:08.621Z,30.06
2023-05-20T22:32:37.044Z,29.70
2023-05-20T22:35:05.915Z,30.30
2023-05-20T22:37:34.208Z,29.61
2023-05-20T22:40:02.515Z,29.37
2023-05-20T22:42:30.792Z,29.12
2023-05-20T22:45:00.561Z,29.96
2023-05-20T22:47:28.852Z,30.27
2023-05-20T22:49:57.551Z,29.65
2023-05-20T22:52:26.318Z,30.14
2023-05-20T22:54:54.630Z,29.57
2023-05-20T22:57:22.930Z,29.98
2023-05-20T22:59:52.013Z,29.84
2023-05-20T23:02:21.668Z,30.63
2023-05-20T23:04:50.148Z,30.23
2023-05-20T23:07:19.393Z,30.02
2023-05-20T23:09:48.567Z,30.08
2023-05-20T23:12:17.182Z,30.62
2023-05-20T23:14:45.697Z,29.59
2023-05-20T23:17:14.013Z,29.75
2023-05-20T23:19:43.764Z,29.38
2023-05-20T23:22:12.092Z,29.97
2023-05-20T23:24:40.412Z,29.83
2023-05-20T23:27:08.745Z,30.41
2023-05-20T23:29:37.074Z,29.77
2023-05-20T23:32:06.178Z,29.82
2023-05-20T23:34:35.167Z,30.21
2023-05-20T23:37:05.081Z,29.82
2023-05-20T23:39:33.390Z,29.44
2023-05-20T23:42:01.705Z,29.94
2023-05-20T23:44:29.999Z,29.64
2023-05-20T23:46:58.326Z,30.96
2023-05-20T23:49:27.240Z,31.00
2023-05-20T23:51:55.675Z,30.63
2023-05-20T23:54:25.346Z,30.77
2023-05-20T23:56:54.048Z,29.70
2023-05-20T23:59:22.325Z,29.18
